This is the latest recevied weather packets stored in our database for station/object OK2ILA-10. If no packets are shown the sender has not sent any weather packets the latest 1 day(s).
| Time | Temp. | Humidity | Pressure | Rain* | Wind** | Luminosity | Snow |
|---|---|---|---|---|---|---|---|
| 1778078787 | 21.67° C | 53% | 1008.6 hPa | - | - | - | - |
| 1778078780 | 21.67° C | 53% | 1008.6 hPa | - | - | - | - |
| 1778077580 | 21.67° C | 53% | 1008.5 hPa | - | - | - | - |
| 1778075814 | 21.11° C | 52% | 1009 hPa | - | - | - | - |
| 1778074610 | 22.22° C | 48% | 1009.2 hPa | - | - | - | - |
| 1778072813 | 22.22° C | 49% | 1009.2 hPa | - | - | - | - |
| 1778072809 | 22.22° C | 49% | 1009.2 hPa | - | - | - | - |
| 1778072213 | 22.22° C | 49% | 1009.2 hPa | - | - | - | - |
| 1778072209 | 22.22° C | 49% | 1009.2 hPa | - | - | - | - |
| 1778070412 | 22.78° C | 49% | 1009.5 hPa | - | - | - | - |
| 1778070408 | 22.78° C | 49% | 1009.5 hPa | - | - | - | - |
| 1778069812 | 22.22° C | 50% | 1009.5 hPa | - | - | - | - |
| 1778069808 | 22.22° C | 50% | 1009.5 hPa | - | - | - | - |
| 1778069211 | 22.78° C | 48% | 1009.5 hPa | - | - | - | - |
| 1778068611 | 23.89° C | 48% | 1009.5 hPa | - | - | - | - |
| 1778068011 | 22.78° C | 50% | 1009.5 hPa | - | - | - | - |
| 1778067411 | 22.78° C | 49% | 1009.6 hPa | - | - | - | - |
| 1778067407 | 22.78° C | 49% | 1009.6 hPa | - | - | - | - |
| 1778065610 | 22.78° C | 49% | 1009.6 hPa | - | - | - | - |
| 1778065006 | 22.78° C | 49% | 1009.6 hPa | - | - | - | - |
| 1778064406 | 22.22° C | 48% | 1009.8 hPa | - | - | - | - |
| 1778062609 | 21.67° C | 51% | 1009.8 hPa | - | - | - | - |
| 1778062605 | 21.67° C | 51% | 1009.8 hPa | - | - | - | - |
| 1778062005 | 22.22° C | 51% | 1009.8 hPa | - | - | - | - |
| 1778061405 | 21.67° C | 52% | 1009.9 hPa | - | - | - | - |
* Rain since midnight (hover to see other rain measurements)
** Current wind speed in m/s (hover to see current wind gust speed)